sensor_id;sensor_type;location;lat;lon;timestamp;temperature;humidity
13433;DHT22;6789;47.678;9.158;2023-05-23T00:02:33;17.40;99.90
13433;DHT22;6789;47.678;9.158;2023-05-23T00:07:25;17.30;99.90
13433;DHT22;6789;47.678;9.158;2023-05-23T00:12:17;17.10;99.90
13433;DHT22;6789;47.678;9.158;2023-05-23T00:17:10;17.10;99.90
13433;DHT22;6789;47.678;9.158;2023-05-23T00:22:02;17.10;99.90
13433;DHT22;6789;47.678;9.158;2023-05-23T00:26:54;17.10;99.90
13433;DHT22;6789;47.678;9.158;2023-05-23T00:31:46;17.10;99.90
13433;DHT22;6789;47.678;9.158;2023-05-23T00:36:38;17.00;99.90
13433;DHT22;6789;47.678;9.158;2023-05-23T00:41:32;17.00;99.90
13433;DHT22;6789;47.678;9.158;2023-05-23T00:46:24;17.00;99.90
13433;DHT22;6789;47.678;9.158;2023-05-23T00:51:17;16.90;99.90
13433;DHT22;6789;47.678;9.158;2023-05-23T00:56:09;16.80;99.90
13433;DHT22;6789;47.678;9.158;2023-05-23T01:01:02;16.60;99.90
13433;DHT22;6789;47.678;9.158;2023-05-23T01:05:55;16.50;99.90
13433;DHT22;6789;47.678;9.158;2023-05-23T01:10:47;16.60;99.90
13433;DHT22;6789;47.678;9.158;2023-05-23T01:16:02;16.50;99.90
13433;DHT22;6789;47.678;9.158;2023-05-23T01:21:14;16.30;99.90
13433;DHT22;6789;47.678;9.158;2023-05-23T01:31:10;16.20;99.90
13433;DHT22;6789;47.678;9.158;2023-05-23T01:36:03;16.30;99.90
13433;DHT22;6789;47.678;9.158;2023-05-23T01:40:56;16.40;99.90
13433;DHT22;6789;47.678;9.158;2023-05-23T01:45:48;16.50;99.90
13433;DHT22;6789;47.678;9.158;2023-05-23T01:50:43;16.40;99.90
13433;DHT22;6789;47.678;9.158;2023-05-23T01:55:40;16.30;99.90
13433;DHT22;6789;47.678;9.158;2023-05-23T02:00:33;16.20;99.90
13433;DHT22;6789;47.678;9.158;2023-05-23T02:05:25;16.20;99.90
13433;DHT22;6789;47.678;9.158;2023-05-23T02:10:18;16.20;99.90
13433;DHT22;6789;47.678;9.158;2023-05-23T02:15:10;16.20;99.90
13433;DHT22;6789;47.678;9.158;2023-05-23T02:20:01;16.10;99.90
13433;DHT22;6789;47.678;9.158;2023-05-23T02:24:54;16.10;99.90
13433;DHT22;6789;47.678;9.158;2023-05-23T02:29:46;16.00;99.90
13433;DHT22;6789;47.678;9.158;2023-05-23T02:34:38;16.00;99.90
13433;DHT22;6789;47.678;9.158;2023-05-23T02:39:30;16.10;99.90
13433;DHT22;6789;47.678;9.158;2023-05-23T02:44:22;16.10;99.90
13433;DHT22;6789;47.678;9.158;2023-05-23T02:49:14;16.10;99.90
13433;DHT22;6789;47.678;9.158;2023-05-23T02:54:06;15.90;99.90
13433;DHT22;6789;47.678;9.158;2023-05-23T02:58:57;15.80;99.90
13433;DHT22;6789;47.678;9.158;2023-05-23T03:03:49;15.80;99.90
13433;DHT22;6789;47.678;9.158;2023-05-23T03:08:42;15.70;99.90
13433;DHT22;6789;47.678;9.158;2023-05-23T03:13:34;15.60;99.90
13433;DHT22;6789;47.678;9.158;2023-05-23T03:18:26;15.70;99.90
13433;DHT22;6789;47.678;9.158;2023-05-23T03:23:18;15.60;99.90
13433;DHT22;6789;47.678;9.158;2023-05-23T03:28:10;15.50;99.90
13433;DHT22;6789;47.678;9.158;2023-05-23T03:33:04;15.50;99.90
13433;DHT22;6789;47.678;9.158;2023-05-23T03:38:11;15.50;99.90
13433;DHT22;6789;47.678;9.158;2023-05-23T03:43:04;15.50;99.90
13433;DHT22;6789;47.678;9.158;2023-05-23T03:47:58;15.40;99.90
13433;DHT22;6789;47.678;9.158;2023-05-23T03:52:50;15.40;99.90
13433;DHT22;6789;47.678;9.158;2023-05-23T03:57:41;15.40;99.90
13433;DHT22;6789;47.678;9.158;2023-05-23T04:02:33;15.50;99.90
13433;DHT22;6789;47.678;9.158;2023-05-23T04:07:39;15.60;99.90
13433;DHT22;6789;47.678;9.158;2023-05-23T04:12:46;15.90;99.90
13433;DHT22;6789;47.678;9.158;2023-05-23T04:17:56;16.30;99.90
13433;DHT22;6789;47.678;9.158;2023-05-23T04:23:03;16.50;99.90
13433;DHT22;6789;47.678;9.158;2023-05-23T04:28:11;17.10;99.90
13433;DHT22;6789;47.678;9.158;2023-05-23T04:33:18;17.60;99.90
13433;DHT22;6789;47.678;9.158;2023-05-23T04:38:24;17.90;99.90
13433;DHT22;6789;47.678;9.158;2023-05-23T04:43:30;18.20;99.90
13433;DHT22;6789;47.678;9.158;2023-05-23T04:48:38;18.10;99.90
13433;DHT22;6789;47.678;9.158;2023-05-23T04:53:44;17.90;99.90
13433;DHT22;6789;47.678;9.158;2023-05-23T04:58:49;17.90;99.90
13433;DHT22;6789;47.678;9.158;2023-05-23T05:03:57;17.90;99.90
13433;DHT22;6789;47.678;9.158;2023-05-23T05:09:03;17.90;99.90
13433;DHT22;6789;47.678;9.158;2023-05-23T05:14:09;18.10;99.90
13433;DHT22;6789;47.678;9.158;2023-05-23T05:19:16;18.70;99.90
13433;DHT22;6789;47.678;9.158;2023-05-23T05:31:41;20.90;99.90
13433;DHT22;6789;47.678;9.158;2023-05-23T05:36:50;21.90;99.90
13433;DHT22;6789;47.678;9.158;2023-05-23T05:42:00;22.20;99.90
13433;DHT22;6789;47.678;9.158;2023-05-23T05:47:28;22.70;99.90
13433;DHT22;6789;47.678;9.158;2023-05-23T05:52:39;23.40;99.90
13433;DHT22;6789;47.678;9.158;2023-05-23T05:57:47;23.80;99.90
13433;DHT22;6789;47.678;9.158;2023-05-23T06:03:02;23.80;99.90
13433;DHT22;6789;47.678;9.158;2023-05-23T06:08:08;23.90;99.90
13433;DHT22;6789;47.678;9.158;2023-05-23T06:13:16;23.80;99.90
13433;DHT22;6789;47.678;9.158;2023-05-23T06:18:23;23.60;99.90
13433;DHT22;6789;47.678;9.158;2023-05-23T06:23:30;23.50;99.90
13433;DHT22;6789;47.678;9.158;2023-05-23T06:28:38;22.10;99.90
13433;DHT22;6789;47.678;9.158;2023-05-23T06:33:45;21.40;99.90
13433;DHT22;6789;47.678;9.158;2023-05-23T06:38:51;21.20;99.90
13433;DHT22;6789;47.678;9.158;2023-05-23T06:43:57;21.20;99.90
13433;DHT22;6789;47.678;9.158;2023-05-23T06:49:03;20.90;99.90
13433;DHT22;6789;47.678;9.158;2023-05-23T06:54:11;20.90;99.90
13433;DHT22;6789;47.678;9.158;2023-05-23T06:59:25;21.30;99.90
13433;DHT22;6789;47.678;9.158;2023-05-23T07:10:32;22.30;99.90
13433;DHT22;6789;47.678;9.158;2023-05-23T07:15:40;22.50;99.90
13433;DHT22;6789;47.678;9.158;2023-05-23T07:21:07;22.40;99.90
13433;DHT22;6789;47.678;9.158;2023-05-23T07:26:21;22.00;99.90
13433;DHT22;6789;47.678;9.158;2023-05-23T07:37:11;21.50;99.90
13433;DHT22;6789;47.678;9.158;2023-05-23T07:42:17;21.70;99.90
13433;DHT22;6789;47.678;9.158;2023-05-23T07:47:23;21.80;99.90
13433;DHT22;6789;47.678;9.158;2023-05-23T07:52:47;22.10;99.90
13433;DHT22;6789;47.678;9.158;2023-05-23T07:58:13;21.90;99.90
13433;DHT22;6789;47.678;9.158;2023-05-23T08:03:19;21.70;99.90
13433;DHT22;6789;47.678;9.158;2023-05-23T08:08:28;21.60;99.90
13433;DHT22;6789;47.678;9.158;2023-05-23T08:13:44;21.90;99.90
13433;DHT22;6789;47.678;9.158;2023-05-23T08:19:00;22.00;99.90
13433;DHT22;6789;47.678;9.158;2023-05-23T08:24:07;22.10;99.90
13433;DHT22;6789;47.678;9.158;2023-05-23T08:29:32;22.20;99.90
13433;DHT22;6789;47.678;9.158;2023-05-23T08:34:44;22.30;99.90
13433;DHT22;6789;47.678;9.158;2023-05-23T08:46:33;22.50;99.90
13433;DHT22;6789;47.678;9.158;2023-05-23T08:51:54;22.60;99.90
13433;DHT22;6789;47.678;9.158;2023-05-23T08:57:20;22.60;99.90
13433;DHT22;6789;47.678;9.158;2023-05-23T09:02:30;22.70;99.90
13433;DHT22;6789;47.678;9.158;2023-05-23T09:12:42;22.70;99.90
13433;DHT22;6789;47.678;9.158;2023-05-23T09:18:20;22.90;99.90
13433;DHT22;6789;47.678;9.158;2023-05-23T09:28:59;23.40;99.90
13433;DHT22;6789;47.678;9.158;2023-05-23T09:53:06;23.90;99.90
13433;DHT22;6789;47.678;9.158;2023-05-23T09:58:53;23.90;99.90
13433;DHT22;6789;47.678;9.158;2023-05-23T10:04:56;23.90;99.90
13433;DHT22;6789;47.678;9.158;2023-05-23T10:21:11;23.90;99.90
13433;DHT22;6789;47.678;9.158;2023-05-23T10:26:10;24.60;99.90
13433;DHT22;6789;47.678;9.158;2023-05-23T10:31:02;25.40;99.90
13433;DHT22;6789;47.678;9.158;2023-05-23T10:36:09;25.90;99.90
13433;DHT22;6789;47.678;9.158;2023-05-23T10:42:08;26.40;99.90
13433;DHT22;6789;47.678;9.158;2023-05-23T10:47:29;25.80;99.90
13433;DHT22;6789;47.678;9.158;2023-05-23T10:53:01;25.40;99.90
13433;DHT22;6789;47.678;9.158;2023-05-23T10:58:38;25.20;99.90
13433;DHT22;6789;47.678;9.158;2023-05-23T11:04:07;25.50;99.90
13433;DHT22;6789;47.678;9.158;2023-05-23T11:09:26;26.20;99.90
13433;DHT22;6789;47.678;9.158;2023-05-23T11:15:40;26.10;99.90
13433;DHT22;6789;47.678;9.158;2023-05-23T11:21:32;24.80;99.90
13433;DHT22;6789;47.678;9.158;2023-05-23T11:26:39;22.70;99.90
13433;DHT22;6789;47.678;9.158;2023-05-23T11:31:52;21.80;99.90
13433;DHT22;6789;47.678;9.158;2023-05-23T11:36:59;21.20;99.90
13433;DHT22;6789;47.678;9.158;2023-05-23T11:42:26;20.30;99.90
13433;DHT22;6789;47.678;9.158;2023-05-23T11:47:44;20.80;99.90
13433;DHT22;6789;47.678;9.158;2023-05-23T11:52:53;21.40;99.90
13433;DHT22;6789;47.678;9.158;2023-05-23T11:58:38;21.70;99.90
13433;DHT22;6789;47.678;9.158;2023-05-23T12:03:55;22.30;99.90
13433;DHT22;6789;47.678;9.158;2023-05-23T12:09:15;22.60;99.90
13433;DHT22;6789;47.678;9.158;2023-05-23T12:14:58;22.60;99.90
13433;DHT22;6789;47.678;9.158;2023-05-23T12:20:19;23.20;99.90
13433;DHT22;6789;47.678;9.158;2023-05-23T12:30:57;23.10;99.90
13433;DHT22;6789;47.678;9.158;2023-05-23T12:36:28;22.90;99.90
13433;DHT22;6789;47.678;9.158;2023-05-23T12:42:15;23.00;99.90
13433;DHT22;6789;47.678;9.158;2023-05-23T12:48:26;22.60;99.90
13433;DHT22;6789;47.678;9.158;2023-05-23T12:53:49;22.70;99.90
13433;DHT22;6789;47.678;9.158;2023-05-23T12:58:58;22.30;99.90
13433;DHT22;6789;47.678;9.158;2023-05-23T13:04:35;22.20;99.90
13433;DHT22;6789;47.678;9.158;2023-05-23T13:10:37;22.40;99.90
13433;DHT22;6789;47.678;9.158;2023-05-23T13:16:06;22.20;99.90
13433;DHT22;6789;47.678;9.158;2023-05-23T13:34:01;19.90;99.90
13433;DHT22;6789;47.678;9.158;2023-05-23T13:52:35;19.60;99.90
13433;DHT22;6789;47.678;9.158;2023-05-23T13:57:42;19.70;99.90
13433;DHT22;6789;47.678;9.158;2023-05-23T14:02:52;19.80;99.90
13433;DHT22;6789;47.678;9.158;2023-05-23T14:08:05;20.00;99.90
13433;DHT22;6789;47.678;9.158;2023-05-23T14:13:29;19.90;99.90
13433;DHT22;6789;47.678;9.158;2023-05-23T14:18:43;20.10;99.90
13433;DHT22;6789;47.678;9.158;2023-05-23T14:24:40;20.50;99.90
13433;DHT22;6789;47.678;9.158;2023-05-23T14:36:56;21.60;99.90
13433;DHT22;6789;47.678;9.158;2023-05-23T14:55:55;21.80;99.90
13433;DHT22;6789;47.678;9.158;2023-05-23T15:01:02;21.90;99.90
13433;DHT22;6789;47.678;9.158;2023-05-23T15:06:49;22.00;99.90
13433;DHT22;6789;47.678;9.158;2023-05-23T15:11:56;21.70;99.90
13433;DHT22;6789;47.678;9.158;2023-05-23T15:28:56;21.10;99.90
13433;DHT22;6789;47.678;9.158;2023-05-23T15:34:35;20.90;99.90
13433;DHT22;6789;47.678;9.158;2023-05-23T15:39:47;21.00;99.90
13433;DHT22;6789;47.678;9.158;2023-05-23T15:44:53;21.10;99.90
13433;DHT22;6789;47.678;9.158;2023-05-23T15:56:50;20.90;99.90
13433;DHT22;6789;47.678;9.158;2023-05-23T16:02:33;21.20;99.90
13433;DHT22;6789;47.678;9.158;2023-05-23T16:08:05;21.20;99.90
13433;DHT22;6789;47.678;9.158;2023-05-23T16:14:09;21.40;99.90
13433;DHT22;6789;47.678;9.158;2023-05-23T16:19:32;21.60;99.90
13433;DHT22;6789;47.678;9.158;2023-05-23T16:24:53;21.50;99.90
13433;DHT22;6789;47.678;9.158;2023-05-23T16:30:30;21.40;99.90
13433;DHT22;6789;47.678;9.158;2023-05-23T16:35:36;21.60;99.90
13433;DHT22;6789;47.678;9.158;2023-05-23T16:40:28;21.40;99.90
13433;DHT22;6789;47.678;9.158;2023-05-23T16:45:20;21.30;99.90
13433;DHT22;6789;47.678;9.158;2023-05-23T16:50:31;21.30;99.90
13433;DHT22;6789;47.678;9.158;2023-05-23T16:56:04;21.20;99.90
13433;DHT22;6789;47.678;9.158;2023-05-23T17:01:46;21.10;99.90
13433;DHT22;6789;47.678;9.158;2023-05-23T17:12:56;21.00;99.90
13433;DHT22;6789;47.678;9.158;2023-05-23T17:18:41;20.80;99.90
13433;DHT22;6789;47.678;9.158;2023-05-23T17:23:48;20.60;99.90
13433;DHT22;6789;47.678;9.158;2023-05-23T17:29:05;20.40;99.90
13433;DHT22;6789;47.678;9.158;2023-05-23T17:34:19;20.10;99.90
13433;DHT22;6789;47.678;9.158;2023-05-23T17:51:11;19.60;99.90
13433;DHT22;6789;47.678;9.158;2023-05-23T17:56:30;19.70;99.90
13433;DHT22;6789;47.678;9.158;2023-05-23T18:01:40;19.50;99.90
13433;DHT22;6789;47.678;9.158;2023-05-23T18:06:56;19.30;99.90
13433;DHT22;6789;47.678;9.158;2023-05-23T18:11:56;19.00;99.90
13433;DHT22;6789;47.678;9.158;2023-05-23T18:17:56;18.90;99.90
13433;DHT22;6789;47.678;9.158;2023-05-23T18:23:53;18.80;99.90
13433;DHT22;6789;47.678;9.158;2023-05-23T18:29:02;18.60;99.90
13433;DHT22;6789;47.678;9.158;2023-05-23T18:34:15;18.50;99.90
13433;DHT22;6789;47.678;9.158;2023-05-23T18:39:57;18.40;99.90
13433;DHT22;6789;47.678;9.158;2023-05-23T18:46:00;18.40;99.90
13433;DHT22;6789;47.678;9.158;2023-05-23T18:51:23;18.40;99.90
13433;DHT22;6789;47.678;9.158;2023-05-23T18:56:36;18.40;99.90
13433;DHT22;6789;47.678;9.158;2023-05-23T19:01:58;18.30;99.90
13433;DHT22;6789;47.678;9.158;2023-05-23T19:07:20;18.20;99.90
13433;DHT22;6789;47.678;9.158;2023-05-23T19:12:40;18.20;99.90
13433;DHT22;6789;47.678;9.158;2023-05-23T19:17:46;18.10;99.90
13433;DHT22;6789;47.678;9.158;2023-05-23T19:22:38;18.00;99.90
13433;DHT22;6789;47.678;9.158;2023-05-23T19:27:55;17.80;99.90
13433;DHT22;6789;47.678;9.158;2023-05-23T19:33:22;17.80;99.90
13433;DHT22;6789;47.678;9.158;2023-05-23T19:38:14;17.70;99.90
13433;DHT22;6789;47.678;9.158;2023-05-23T19:54:18;17.60;99.90
13433;DHT22;6789;47.678;9.158;2023-05-23T19:59:54;17.50;99.90
13433;DHT22;6789;47.678;9.158;2023-05-23T20:05:10;17.50;99.90
13433;DHT22;6789;47.678;9.158;2023-05-23T20:10:26;17.40;99.90
13433;DHT22;6789;47.678;9.158;2023-05-23T20:16:03;17.40;99.90
13433;DHT22;6789;47.678;9.158;2023-05-23T20:21:12;17.30;99.90
13433;DHT22;6789;47.678;9.158;2023-05-23T20:26:04;17.30;99.90
13433;DHT22;6789;47.678;9.158;2023-05-23T20:31:10;17.40;99.90
13433;DHT22;6789;47.678;9.158;2023-05-23T20:36:11;17.30;99.90
13433;DHT22;6789;47.678;9.158;2023-05-23T20:41:19;17.30;99.90
13433;DHT22;6789;47.678;9.158;2023-05-23T20:46:12;17.30;99.90
13433;DHT22;6789;47.678;9.158;2023-05-23T20:51:19;17.30;99.90
13433;DHT22;6789;47.678;9.158;2023-05-23T20:56:34;17.30;99.90
13433;DHT22;6789;47.678;9.158;2023-05-23T21:01:43;17.30;99.90
13433;DHT22;6789;47.678;9.158;2023-05-23T21:06:50;17.30;99.90
13433;DHT22;6789;47.678;9.158;2023-05-23T21:11:57;17.20;99.90
13433;DHT22;6789;47.678;9.158;2023-05-23T21:17:14;17.30;99.90
13433;DHT22;6789;47.678;9.158;2023-05-23T21:22:21;17.30;99.90
13433;DHT22;6789;47.678;9.158;2023-05-23T21:27:28;17.30;99.90
13433;DHT22;6789;47.678;9.158;2023-05-23T21:33:05;17.40;99.90
13433;DHT22;6789;47.678;9.158;2023-05-23T21:38:14;17.40;99.90
13433;DHT22;6789;47.678;9.158;2023-05-23T21:43:07;17.20;99.90
13433;DHT22;6789;47.678;9.158;2023-05-23T21:48:13;17.20;99.90
13433;DHT22;6789;47.678;9.158;2023-05-23T21:53:19;17.00;99.90
13433;DHT22;6789;47.678;9.158;2023-05-23T21:58:11;16.80;99.90
13433;DHT22;6789;47.678;9.158;2023-05-23T22:03:03;16.70;99.90
13433;DHT22;6789;47.678;9.158;2023-05-23T22:08:09;16.60;99.90
13433;DHT22;6789;47.678;9.158;2023-05-23T22:13:19;16.60;99.90
13433;DHT22;6789;47.678;9.158;2023-05-23T22:24:25;16.20;99.90
13433;DHT22;6789;47.678;9.158;2023-05-23T22:29:17;16.10;99.90
13433;DHT22;6789;47.678;9.158;2023-05-23T22:34:09;16.10;99.90
13433;DHT22;6789;47.678;9.158;2023-05-23T22:39:00;16.00;99.90
13433;DHT22;6789;47.678;9.158;2023-05-23T22:43:55;16.00;99.90
13433;DHT22;6789;47.678;9.158;2023-05-23T22:48:47;15.90;99.90
13433;DHT22;6789;47.678;9.158;2023-05-23T22:53:39;15.80;99.90
13433;DHT22;6789;47.678;9.158;2023-05-23T22:58:31;15.80;99.90
13433;DHT22;6789;47.678;9.158;2023-05-23T23:35:26;15.40;99.90
13433;DHT22;6789;47.678;9.158;2023-05-23T23:40:18;15.50;99.90
13433;DHT22;6789;47.678;9.158;2023-05-23T23:45:10;15.40;99.90
13433;DHT22;6789;47.678;9.158;2023-05-23T23:50:03;15.40;99.90
13433;DHT22;6789;47.678;9.158;2023-05-23T23:54:55;15.30;99.90
13433;DHT22;6789;47.678;9.158;2023-05-23T23:59:47;15.40;99.90
